Relevés horaires Locarno / Monti (Suisse)


Relevés horaires à Locarno / Monti - Lundi 20 Août 2018
Heure UTC1 Température [°C] Vent [km/h] Hum. [%] Pres.4 [hPa] Visi. [Km] Nébu. [octa] Préc.5 [mm] Cond.
2m. Res. Ros. Dir.2 Vit. Moy. Raf.3
23:00 23.0 23.0 15.4 N 5.6 -- -- 62 1018 -- -- -- --
22:00 23.8 23.8 15.1 NO 24.1 -- -- 58 1018.1 -- -- -- --
21:00 22.7 22.7 15.8 N 7.4 -- 20.4 65 1018.1(3.0/3h) -- -- -- --
20:00 24.4 24.4 16.3 NE 9.3 -- -- 61 1016.9 -- -- -- --
19:00 26.5 26.5 17.3 NE 1.9 -- -- 57 1015.5 -- -- -- --
18:00 28.0 28.0 16.1 N 5.6 -- 20.4 48 1014.2(0.0/3h) 25 7/8 0/12h
Du tonnerre est perçu au moment de l'observation, ou au cours des 15 minutes qui précèdent le moment de l'observation, mais il n'y a pas de précipitations à la station au moment de l'observation
17:00 29.0 29.0 16.3 OSO 1.9 -- -- 46 1013.6 -- -- -- --
16:00 30.0 30.0 17.0 SO 13.0 -- -- 46 1013.5 -- -- -- --
15:00 30.0 30.0 17.6 OSO 7.4 -- 20.4 47 1013.9(-1.4/3h) 20 3/8 -- --
14:00 29.9 29.9 17.5 SO 9.3 -- -- 47 1014.4 -- -- -- --
13:00 30.1 30.1 16.2 OSO 9.3 -- -- 43 1015 -- -- -- --
12:00 29.4 29.4 15.9 SO 7.4 -- 14.8 44 1015.4(-1.1/3h) 25 2/8 0/6h
--
11:00 28.4 28.4 15.9 S 3.7 -- -- 47 1016.2 -- -- -- --
10:00 26.0 26.0 15.9 SSE 5.6 -- -- 54 1016.9 -- -- -- --
09:00 24.1 24.1 15.9 SSE 5.6 -- 9.3 60 1017.4(-0.2/3h) 25 1/8 -- --
08:00 23.4 23.4 16.9 SE 3.7 -- -- 67 1017.9 -- -- -- --
07:00 21.3 21.3 15.7 SE 3.7 -- -- 70 1018.3 -- -- -- --
06:00 20.3 20.3 16.3 OSO 1.9 -- 7.4 78 1018.2(0.1/3h) 25 2/8 0/12h
0/24h
--
05:00 19.4 19.4 15.0 N 5.6 -- -- 76 1018.1 -- -- -- --
04:00 19.4 19.4 14.8 NNO 3.7 -- -- 75 1018.2 -- -- -- --
03:00 19.8 19.8 15.2 ONO 1.9 -- 5.6 75 1018.2(-0.7/3h) -- -- -- --
02:00 20.4 20.4 15.5 N 3.7 -- -- 73 1018.3 -- -- -- --
01:00 20.8 20.8 15.9 N 1.9 -- -- 74 1018.5 -- -- -- --
00:00 21.2 21.2 16.2 NE 1.9 -- 13.0 73 1018.7(-0.5/3h) -- -- 0/6h
--

1 Coordinated Universal Time. Actuellement il est 10:00 locale et 09:00 UTC.

2 Le vent souffle depuis la direction indiquée vers la direction oposée.

3 Les rafales max. sont disponible 40 min après l'heure du relevé.

4 Pour les stations d'altitude (plus de 600m) le géopotentiel du niveau le plus proche de la pression obligatoire est indiqué.

5 Les stations disposant d'un diffuseur peuvent indiquer "trace". Cela signifie que des précipitations ont touchés le sol mais que la quantité est inférieure à 0.1 mm.

Récapitulatif de la journée
Température [°C] Vent [km/h] Ensoleillement4 [h] Precipitations totale5 [mm] Pression [Hpa]
Min1 Max.2 Moy.3 Max. Min Max.
19.2 31.0 0 20.4 12 h 12 min 0 1013.5 1018.7

1 Température minimale relevée entre 18:00 UTC la veille et 18:00 UTC le jour donné.

2 Température maximale relevée entre 06:00 UTC le jour donné et 06:00 UTC le lendemain.

3 Vent moyen de la journée basé sur les relevés horaires.

4 Ensoleillement en heures relevé entre 06:00 UTC la veille et 06:00 UTC le jour donné.

5 Précipitations totales tombées entre 06:00 UTC la jour donné et 06:00 UTC le lendemain.

Graphiques horaires